sensor_id;sensor_type;location;lat;lon;timestamp;pressure;altitude;pressure_sealevel;temperature;humidity
31337;BME280;22846;42.654;23.314;2023-04-28T00:00:43;94724.44;;;24.11;50.56
31337;BME280;22846;42.654;23.314;2023-04-28T00:03:08;94717.91;;;24.08;51.01
31337;BME280;22846;42.654;23.314;2023-04-28T00:05:33;94721.41;;;24.09;50.82
31337;BME280;22846;42.654;23.314;2023-04-28T00:07:59;94720.63;;;24.08;50.72
31337;BME280;22846;42.654;23.314;2023-04-28T00:10:25;94718.34;;;24.07;50.54
31337;BME280;22846;42.654;23.314;2023-04-28T00:12:50;94725.00;;;24.06;50.87
31337;BME280;22846;42.654;23.314;2023-04-28T00:15:15;94721.50;;;24.05;50.91
31337;BME280;22846;42.654;23.314;2023-04-28T00:17:41;94726.19;;;24.05;50.74
31337;BME280;22846;42.654;23.314;2023-04-28T00:20:07;94727.38;;;24.04;50.62
31337;BME280;22846;42.654;23.314;2023-04-28T00:22:33;94721.94;;;24.04;50.81
31337;BME280;22846;42.654;23.314;2023-04-28T00:24:58;94723.13;;;24.03;50.50
31337;BME280;22846;42.654;23.314;2023-04-28T00:27:24;94719.63;;;24.02;51.13
31337;BME280;22846;42.654;23.314;2023-04-28T00:29:49;94709.78;;;23.92;50.61
31337;BME280;22846;42.654;23.314;2023-04-28T00:32:15;94723.56;;;24.01;50.50
31337;BME280;22846;42.654;23.314;2023-04-28T00:34:40;94726.28;;;24.01;51.05
31337;BME280;22846;42.654;23.314;2023-04-28T00:37:05;94729.81;;;24.02;50.50
31337;BME280;22846;42.654;23.314;2023-04-28T00:39:31;94734.91;;;24.00;50.59
31337;BME280;22846;42.654;23.314;2023-04-28T00:41:56;94733.81;;;23.97;50.73
31337;BME280;22846;42.654;23.314;2023-04-28T00:44:22;94732.19;;;24.00;50.89
31337;BME280;22846;42.654;23.314;2023-04-28T00:46:47;94734.13;;;23.99;51.07
31337;BME280;22846;42.654;23.314;2023-04-28T00:49:14;94731.09;;;23.97;50.79
31337;BME280;22846;42.654;23.314;2023-04-28T00:51:40;94735.34;;;23.98;50.69
31337;BME280;22846;42.654;23.314;2023-04-28T00:54:05;94736.56;;;23.97;50.62
31337;BME280;22846;42.654;23.314;2023-04-28T00:56:32;94735.78;;;23.97;50.91
31337;BME280;22846;42.654;23.314;2023-04-28T00:58:58;94732.28;;;23.96;50.74
31337;BME280;22846;42.654;23.314;2023-04-28T01:01:23;94742.44;;;23.96;50.69
31337;BME280;22846;42.654;23.314;2023-04-28T01:03:49;94738.25;;;23.92;50.97
31337;BME280;22846;42.654;23.314;2023-04-28T01:06:15;94741.69;;;23.95;50.96
31337;BME280;22846;42.654;23.314;2023-04-28T01:08:41;94735.53;;;23.92;50.82
31337;BME280;22846;42.654;23.314;2023-04-28T01:11:08;94745.69;;;23.91;50.67
31337;BME280;22846;42.654;23.314;2023-04-28T01:13:38;94744.81;;;23.94;51.00
31337;BME280;22846;42.654;23.314;2023-04-28T01:16:04;94750.28;;;23.94;50.81
31337;BME280;22846;42.654;23.314;2023-04-28T01:18:30;94751.50;;;23.93;50.90
31337;BME280;22846;42.654;23.314;2023-04-28T01:20:56;94754.63;;;23.92;50.81
31337;BME280;22846;42.654;23.314;2023-04-28T01:23:22;94745.25;;;23.92;50.75
31337;BME280;22846;42.654;23.314;2023-04-28T01:25:47;94746.44;;;23.92;51.27
31337;BME280;22846;42.654;23.314;2023-04-28T01:28:12;94747.66;;;23.91;51.26
31337;BME280;22846;42.654;23.314;2023-04-28T01:30:38;94750.38;;;23.91;50.83
31337;BME280;22846;42.654;23.314;2023-04-28T01:33:03;94753.53;;;23.89;51.15
31337;BME280;22846;42.654;23.314;2023-04-28T01:35:29;94752.34;;;23.90;50.87
31337;BME280;22846;42.654;23.314;2023-04-28T01:37:54;94754.28;;;23.90;50.87
31337;BME280;22846;42.654;23.314;2023-04-28T01:40:19;94752.78;;;23.89;50.70
31337;BME280;22846;42.654;23.314;2023-04-28T01:42:45;94746.56;;;23.88;51.00
31337;BME280;22846;42.654;23.314;2023-04-28T01:45:10;94742.03;;;23.82;50.98
31337;BME280;22846;42.654;23.314;2023-04-28T01:47:36;94743.06;;;23.88;50.84
31337;BME280;22846;42.654;23.314;2023-04-28T01:50:01;94750.47;;;23.87;51.12
31337;BME280;22846;42.654;23.314;2023-04-28T01:52:27;94743.47;;;23.86;51.23
31337;BME280;22846;42.654;23.314;2023-04-28T01:54:53;94750.91;;;23.86;50.73
31337;BME280;22846;42.654;23.314;2023-04-28T01:57:18;94747.41;;;23.85;51.26
31337;BME280;22846;42.654;23.314;2023-04-28T01:59:44;94752.84;;;23.85;51.00
31337;BME280;22846;42.654;23.314;2023-04-28T02:02:09;94745.88;;;23.84;50.92
31337;BME280;22846;42.654;23.314;2023-04-28T02:04:37;94748.63;;;23.84;50.86
31337;BME280;22846;42.654;23.314;2023-04-28T02:07:02;94753.28;;;23.84;51.23
31337;BME280;22846;42.654;23.314;2023-04-28T02:09:27;94752.53;;;23.83;51.13
31337;BME280;22846;42.654;23.314;2023-04-28T02:11:53;94754.50;;;23.83;50.89
31337;BME280;22846;42.654;23.314;2023-04-28T02:14:18;94748.28;;;23.82;50.88
31337;BME280;22846;42.654;23.314;2023-04-28T02:16:44;94752.97;;;23.82;51.22
31337;BME280;22846;42.654;23.314;2023-04-28T02:19:09;94761.13;;;23.82;50.80
31337;BME280;22846;42.654;23.314;2023-04-28T02:21:34;94757.66;;;23.81;51.20
31337;BME280;22846;42.654;23.314;2023-04-28T02:24:00;94767.03;;;23.80;50.89
31337;BME280;22846;42.654;23.314;2023-04-28T02:26:25;94750.03;;;23.73;51.11
31337;BME280;22846;42.654;23.314;2023-04-28T02:28:51;94769.00;;;23.80;50.94
31337;BME280;22846;42.654;23.314;2023-04-28T02:31:16;94769.00;;;23.80;50.83
31337;BME280;22846;42.654;23.314;2023-04-28T02:33:41;94767.47;;;23.79;51.03
31337;BME280;22846;42.654;23.314;2023-04-28T02:36:07;94768.22;;;23.79;51.13
31337;BME280;22846;42.654;23.314;2023-04-28T02:38:33;94762.44;;;23.77;51.02
31337;BME280;22846;42.654;23.314;2023-04-28T02:41:03;94779.59;;;23.78;50.94
31337;BME280;22846;42.654;23.314;2023-04-28T02:43:30;94772.16;;;23.78;51.18
31337;BME280;22846;42.654;23.314;2023-04-28T02:45:55;94778.81;;;23.77;51.07
31337;BME280;22846;42.654;23.314;2023-04-28T02:48:31;94777.28;;;23.76;51.40
31337;BME280;22846;42.654;23.314;2023-04-28T02:50:59;94778.03;;;23.77;50.93
31337;BME280;22846;42.654;23.314;2023-04-28T02:53:25;94781.97;;;23.76;50.86
31337;BME280;22846;42.654;23.314;2023-04-28T02:55:50;94777.72;;;23.75;51.10
31337;BME280;22846;42.654;23.314;2023-04-28T02:58:16;94780.44;;;23.75;50.96
31337;BME280;22846;42.654;23.314;2023-04-28T03:00:42;94778.22;;;23.70;51.15
31337;BME280;22846;42.654;23.314;2023-04-28T03:03:07;94788.63;;;23.75;51.28
31337;BME280;22846;42.654;23.314;2023-04-28T03:05:33;94792.50;;;23.74;51.36
31337;BME280;22846;42.654;23.314;2023-04-28T03:07:58;94786.75;;;23.72;51.06
31337;BME280;22846;42.654;23.314;2023-04-28T03:10:24;94785.59;;;23.69;50.84
31337;BME280;22846;42.654;23.314;2023-04-28T03:12:50;94790.97;;;23.73;51.40
31337;BME280;22846;42.654;23.314;2023-04-28T03:15:15;94789.47;;;23.72;50.96
31337;BME280;22846;42.654;23.314;2023-04-28T03:17:41;94789.47;;;23.72;51.04
31337;BME280;22846;42.654;23.314;2023-04-28T03:20:08;94790.66;;;23.71;50.93
31337;BME280;22846;42.654;23.314;2023-04-28T03:22:34;94798.84;;;23.71;50.93
31337;BME280;22846;42.654;23.314;2023-04-28T03:24:59;94797.31;;;23.70;51.16
31337;BME280;22846;42.654;23.314;2023-04-28T03:27:25;94805.50;;;23.70;51.32
31337;BME280;22846;42.654;23.314;2023-04-28T03:29:50;94808.22;;;23.70;51.31
31337;BME280;22846;42.654;23.314;2023-04-28T03:32:16;94813.69;;;23.70;51.16
31337;BME280;22846;42.654;23.314;2023-04-28T03:34:41;94822.63;;;23.70;50.98
31337;BME280;22846;42.654;23.314;2023-04-28T03:37:07;94828.50;;;23.69;51.07
31337;BME280;22846;42.654;23.314;2023-04-28T03:39:32;94820.31;;;23.69;50.81
31337;BME280;22846;42.654;23.314;2023-04-28T03:41:57;94825.78;;;23.69;51.22
31337;BME280;22846;42.654;23.314;2023-04-28T03:44:23;94833.19;;;23.68;51.40
31337;BME280;22846;42.654;23.314;2023-04-28T03:46:48;94828.94;;;23.67;51.41
31337;BME280;22846;42.654;23.314;2023-04-28T03:49:14;94829.69;;;23.68;51.19
31337;BME280;22846;42.654;23.314;2023-04-28T03:51:40;94828.16;;;23.67;50.91
31337;BME280;22846;42.654;23.314;2023-04-28T03:54:05;94840.28;;;23.66;50.93
31337;BME280;22846;42.654;23.314;2023-04-28T03:56:31;94836.00;;;23.65;51.25
31337;BME280;22846;42.654;23.314;2023-04-28T03:58:56;94844.53;;;23.67;50.95
31337;BME280;22846;42.654;23.314;2023-04-28T04:01:22;94845.31;;;23.67;50.80
31337;BME280;22846;42.654;23.314;2023-04-28T04:03:47;94844.19;;;23.65;50.95
31337;BME280;22846;42.654;23.314;2023-04-28T04:06:13;94852.72;;;23.67;51.06
31337;BME280;22846;42.654;23.314;2023-04-28T04:08:39;94857.16;;;23.61;51.76
31337;BME280;22846;42.654;23.314;2023-04-28T04:11:04;94867.06;;;23.71;51.51
31337;BME280;22846;42.654;23.314;2023-04-28T04:13:30;94862.78;;;23.70;51.53
31337;BME280;22846;42.654;23.314;2023-04-28T04:15:55;94861.91;;;23.73;52.17
31337;BME280;22846;42.654;23.314;2023-04-28T04:18:21;94843.78;;;23.66;52.17
31337;BME280;22846;42.654;23.314;2023-04-28T04:20:46;94864.63;;;23.76;52.21
31337;BME280;22846;42.654;23.314;2023-04-28T04:23:11;94866.91;;;23.78;52.48
31337;BME280;22846;42.654;23.314;2023-04-28T04:25:37;94868.44;;;23.79;52.09
31337;BME280;22846;42.654;23.314;2023-04-28T04:28:02;94872.72;;;23.80;52.57
31337;BME280;22846;42.654;23.314;2023-04-28T04:30:28;94872.28;;;23.81;52.24
31337;BME280;22846;42.654;23.314;2023-04-28T04:32:53;94873.47;;;23.80;52.36
31337;BME280;22846;42.654;23.314;2023-04-28T04:35:18;94868.78;;;23.81;52.25
31337;BME280;22846;42.654;23.314;2023-04-28T04:37:44;94870.66;;;23.84;52.38
31337;BME280;22846;42.654;23.314;2023-04-28T04:40:10;94878.41;;;23.85;52.16
31337;BME280;22846;42.654;23.314;2023-04-28T04:42:35;94875.28;;;23.87;52.49
31337;BME280;22846;42.654;23.314;2023-04-28T04:45:01;94878.34;;;23.89;52.99
31337;BME280;22846;42.654;23.314;2023-04-28T04:47:26;94875.69;;;23.85;52.85
31337;BME280;22846;42.654;23.314;2023-04-28T04:49:52;94884.47;;;23.92;51.78
31337;BME280;22846;42.654;23.314;2023-04-28T04:52:17;94890.28;;;23.94;51.81
31337;BME280;22846;42.654;23.314;2023-04-28T04:54:44;94897.28;;;23.95;52.25
31337;BME280;22846;42.654;23.314;2023-04-28T04:57:10;94891.38;;;23.97;51.98
31337;BME280;22846;42.654;23.314;2023-04-28T04:59:35;94896.41;;;23.98;52.16
31337;BME280;22846;42.654;23.314;2023-04-28T05:02:01;94895.72;;;23.94;51.93
31337;BME280;22846;42.654;23.314;2023-04-28T05:04:27;94906.91;;;24.00;52.13
31337;BME280;22846;42.654;23.314;2023-04-28T05:06:53;94915.09;;;24.00;51.77
31337;BME280;22846;42.654;23.314;2023-04-28T05:09:18;94910.38;;;24.00;51.87
31337;BME280;22846;42.654;23.314;2023-04-28T05:11:44;94909.19;;;24.01;51.97
31337;BME280;22846;42.654;23.314;2023-04-28T05:14:09;94907.66;;;24.00;52.00
31337;BME280;22846;42.654;23.314;2023-04-28T05:16:37;94899.47;;;24.00;51.97
31337;BME280;22846;42.654;23.314;2023-04-28T05:19:02;94911.19;;;24.01;51.93
31337;BME280;22846;42.654;23.314;2023-04-28T05:21:28;94911.94;;;24.01;51.57
31337;BME280;22846;42.654;23.314;2023-04-28T05:23:53;94911.50;;;24.03;51.42
31337;BME280;22846;42.654;23.314;2023-04-28T05:26:18;94911.50;;;24.03;51.41
31337;BME280;22846;42.654;23.314;2023-04-28T05:28:44;94906.03;;;24.03;51.52
31337;BME280;22846;42.654;23.314;2023-04-28T05:31:09;94913.03;;;24.04;51.59
31337;BME280;22846;42.654;23.314;2023-04-28T05:33:35;94906.38;;;24.05;51.51
31337;BME280;22846;42.654;23.314;2023-04-28T05:36:00;94908.75;;;24.03;51.44
31337;BME280;22846;42.654;23.314;2023-04-28T05:38:25;94911.44;;;24.06;51.49
31337;BME280;22846;42.654;23.314;2023-04-28T05:40:51;94912.94;;;24.07;51.15
31337;BME280;22846;42.654;23.314;2023-04-28T05:43:16;94904.75;;;24.07;51.14
31337;BME280;22846;42.654;23.314;2023-04-28T05:45:42;94902.38;;;24.09;51.04
31337;BME280;22846;42.654;23.314;2023-04-28T05:48:07;94900.06;;;24.08;50.95
31337;BME280;22846;42.654;23.314;2023-04-28T05:50:33;94905.09;;;24.09;51.46
31337;BME280;22846;42.654;23.314;2023-04-28T05:52:58;94905.44;;;24.11;50.97
31337;BME280;22846;42.654;23.314;2023-04-28T05:55:23;94908.94;;;24.12;51.05
31337;BME280;22846;42.654;23.314;2023-04-28T05:57:49;94904.25;;;24.12;51.21
31337;BME280;22846;42.654;23.314;2023-04-28T06:00:15;94918.66;;;24.13;51.41
31337;BME280;22846;42.654;23.314;2023-04-28T06:02:40;94913.97;;;24.13;51.17
31337;BME280;22846;42.654;23.314;2023-04-28T06:05:06;94909.28;;;24.14;51.11
31337;BME280;22846;42.654;23.314;2023-04-28T06:07:31;94914.28;;;24.15;51.07
31337;BME280;22846;42.654;23.314;2023-04-28T06:09:57;94909.63;;;24.16;50.73
31337;BME280;22846;42.654;23.314;2023-04-28T06:12:22;94909.19;;;24.17;50.69
31337;BME280;22846;42.654;23.314;2023-04-28T06:14:48;94912.69;;;24.18;51.03
31337;BME280;22846;42.654;23.314;2023-04-28T06:17:13;94906.81;;;24.19;51.00
31337;BME280;22846;42.654;23.314;2023-04-28T06:19:39;94909.53;;;24.19;50.50
31337;BME280;22846;42.654;23.314;2023-04-28T06:22:04;94911.06;;;24.20;50.72
31337;BME280;22846;42.654;23.314;2023-04-28T06:24:29;94908.69;;;24.22;50.72
31337;BME280;22846;42.654;23.314;2023-04-28T06:26:55;94898.69;;;24.16;50.36
31337;BME280;22846;42.654;23.314;2023-04-28T06:29:20;94914.91;;;24.23;50.55
31337;BME280;22846;42.654;23.314;2023-04-28T06:31:48;94911.72;;;24.24;50.77
31337;BME280;22846;42.654;23.314;2023-04-28T06:34:13;94909.78;;;24.25;50.83
31337;BME280;22846;42.654;23.314;2023-04-28T06:36:39;94914.81;;;24.26;50.60
31337;BME280;22846;42.654;23.314;2023-04-28T06:39:04;94912.06;;;24.26;50.58
31337;BME280;22846;42.654;23.314;2023-04-28T06:41:30;94904.66;;;24.27;50.29
31337;BME280;22846;42.654;23.314;2023-04-28T06:43:56;94909.69;;;24.28;50.45
31337;BME280;22846;42.654;23.314;2023-04-28T06:46:21;94904.22;;;24.28;50.56
31337;BME280;22846;42.654;23.314;2023-04-28T06:48:47;94903.03;;;24.29;50.22
31337;BME280;22846;42.654;23.314;2023-04-28T06:51:13;94897.13;;;24.31;50.03
31337;BME280;22846;42.654;23.314;2023-04-28T06:53:38;94900.66;;;24.31;50.11
31337;BME280;22846;42.654;23.314;2023-04-28T06:56:04;94891.75;;;24.27;50.31
31337;BME280;22846;42.654;23.314;2023-04-28T06:58:30;94901.41;;;24.32;50.03
31337;BME280;22846;42.654;23.314;2023-04-28T07:00:55;94900.19;;;24.33;50.33
31337;BME280;22846;42.654;23.314;2023-04-28T07:03:20;94905.22;;;24.34;50.07
31337;BME280;22846;42.654;23.314;2023-04-28T07:05:46;94907.97;;;24.34;50.43
31337;BME280;22846;42.654;23.314;2023-04-28T07:08:11;94905.22;;;24.34;50.42
31337;BME280;22846;42.654;23.314;2023-04-28T07:10:37;94899.75;;;24.34;50.17
31337;BME280;22846;42.654;23.314;2023-04-28T07:13:02;94902.50;;;24.34;50.14
31337;BME280;22846;42.654;23.314;2023-04-28T07:15:27;94901.31;;;24.35;50.75
31337;BME280;22846;42.654;23.314;2023-04-28T07:17:53;94901.31;;;24.35;50.85
31337;BME280;22846;42.654;23.314;2023-04-28T07:20:19;94895.84;;;24.35;50.48
31337;BME280;22846;42.654;23.314;2023-04-28T07:22:44;94896.63;;;24.36;50.39
31337;BME280;22846;42.654;23.314;2023-04-28T07:25:10;94891.91;;;24.36;50.50
31337;BME280;22846;42.654;23.314;2023-04-28T07:27:35;94892.69;;;24.37;50.25
31337;BME280;22846;42.654;23.314;2023-04-28T07:30:01;94897.38;;;24.36;50.52
31337;BME280;22846;42.654;23.314;2023-04-28T07:32:27;94880.66;;;24.34;50.34
31337;BME280;22846;42.654;23.314;2023-04-28T07:34:52;94893.44;;;24.37;50.64
31337;BME280;22846;42.654;23.314;2023-04-28T07:37:17;94880.41;;;24.29;50.87
31337;BME280;22846;42.654;23.314;2023-04-28T07:39:43;94898.91;;;24.37;50.72
31337;BME280;22846;42.654;23.314;2023-04-28T07:42:09;94898.91;;;24.37;50.72
31337;BME280;22846;42.654;23.314;2023-04-28T07:44:34;94889.28;;;24.33;50.45
31337;BME280;22846;42.654;23.314;2023-04-28T07:47:01;94896.19;;;24.37;50.52
31337;BME280;22846;42.654;23.314;2023-04-28T07:49:29;94898.91;;;24.37;51.11
31337;BME280;22846;42.654;23.314;2023-04-28T07:51:55;94895.00;;;24.38;51.08
31337;BME280;22846;42.654;23.314;2023-04-28T07:54:21;94894.22;;;24.38;50.91
31337;BME280;22846;42.654;23.314;2023-04-28T07:56:47;94894.22;;;24.38;50.44
31337;BME280;22846;42.654;23.314;2023-04-28T07:59:13;94890.28;;;24.39;50.85
31337;BME280;22846;42.654;23.314;2023-04-28T08:01:38;94886.78;;;24.38;51.09
31337;BME280;22846;42.654;23.314;2023-04-28T08:04:04;94871.19;;;24.23;50.67
31337;BME280;22846;42.654;23.314;2023-04-28T08:06:29;94889.53;;;24.38;50.60
31337;BME280;22846;42.654;23.314;2023-04-28T08:08:55;94888.00;;;24.37;51.18
31337;BME280;22846;42.654;23.314;2023-04-28T08:11:20;94891.47;;;24.38;50.88
31337;BME280;22846;42.654;23.314;2023-04-28T08:13:47;94892.25;;;24.38;51.55
31337;BME280;22846;42.654;23.314;2023-04-28T08:16:13;94893.44;;;24.37;51.06
31337;BME280;22846;42.654;23.314;2023-04-28T08:18:39;94886.00;;;24.38;50.99
31337;BME280;22846;42.654;23.314;2023-04-28T08:21:04;94886.44;;;24.36;51.25
31337;BME280;22846;42.654;23.314;2023-04-28T08:23:30;94891.47;;;24.38;51.35
31337;BME280;22846;42.654;23.314;2023-04-28T08:25:56;94881.34;;;24.38;51.16
31337;BME280;22846;42.654;23.314;2023-04-28T08:28:21;94891.47;;;24.38;51.21
31337;BME280;22846;42.654;23.314;2023-04-28T08:30:47;94886.78;;;24.38;50.97
31337;BME280;22846;42.654;23.314;2023-04-28T08:33:12;94888.00;;;24.37;50.95
31337;BME280;22846;42.654;23.314;2023-04-28T08:35:38;94880.56;;;24.38;50.72
31337;BME280;22846;42.654;23.314;2023-04-28T08:38:04;94888.00;;;24.37;50.84
31337;BME280;22846;42.654;23.314;2023-04-28T08:40:31;94888.75;;;24.38;50.68
31337;BME280;22846;42.654;23.314;2023-04-28T08:42:57;94877.16;;;24.34;50.46
31337;BME280;22846;42.654;23.314;2023-04-28T08:45:23;94885.25;;;24.37;50.81
31337;BME280;22846;42.654;23.314;2023-04-28T08:47:50;94875.09;;;24.38;51.00
31337;BME280;22846;42.654;23.314;2023-04-28T08:50:20;94873.66;;;24.33;50.98
31337;BME280;22846;42.654;23.314;2023-04-28T08:52:46;94877.06;;;24.37;50.92
31337;BME280;22846;42.654;23.314;2023-04-28T08:55:12;94880.56;;;24.38;50.37
31337;BME280;22846;42.654;23.314;2023-04-28T08:57:58;94866.22;;;24.34;51.04
31337;BME280;22846;42.654;23.314;2023-04-28T09:00:24;94871.34;;;24.32;51.11
31337;BME280;22846;42.654;23.314;2023-04-28T09:02:50;94866.13;;;24.37;50.57
31337;BME280;22846;42.654;23.314;2023-04-28T09:05:15;94871.59;;;24.37;50.42
31337;BME280;22846;42.654;23.314;2023-04-28T09:07:44;94866.88;;;24.38;50.86
31337;BME280;22846;42.654;23.314;2023-04-28T09:10:24;94863.41;;;24.37;51.34
31337;BME280;22846;42.654;23.314;2023-04-28T09:12:52;94857.19;;;24.37;50.85
31337;BME280;22846;42.654;23.314;2023-04-28T09:17:57;94847.56;;;24.32;50.90
31337;BME280;22846;42.654;23.314;2023-04-28T09:20:24;94845.47;;;24.36;50.76
31337;BME280;22846;42.654;23.314;2023-04-28T09:22:51;94829.78;;;24.24;50.58
31337;BME280;22846;42.654;23.314;2023-04-28T09:25:17;94845.47;;;24.36;50.86
31337;BME280;22846;42.654;23.314;2023-04-28T09:27:43;94836.53;;;24.36;50.15
31337;BME280;22846;42.654;23.314;2023-04-28T09:30:09;94841.22;;;24.35;50.57
31337;BME280;22846;42.654;23.314;2023-04-28T09:32:35;94844.72;;;24.36;50.18
31337;BME280;22846;42.654;23.314;2023-04-28T09:35:01;94837.28;;;24.36;50.14
31337;BME280;22846;42.654;23.314;2023-04-28T09:37:27;94836.53;;;24.36;50.79
31337;BME280;22846;42.654;23.314;2023-04-28T09:40:02;94837.28;;;24.36;50.16
31337;BME280;22846;42.654;23.314;2023-04-28T09:42:39;94828.34;;;24.36;50.14
31337;BME280;22846;42.654;23.314;2023-04-28T09:45:12;94824.81;;;24.35;50.39
31337;BME280;22846;42.654;23.314;2023-04-28T09:47:40;94824.81;;;24.35;50.09
31337;BME280;22846;42.654;23.314;2023-04-28T09:50:07;94828.34;;;24.36;50.15
31337;BME280;22846;42.654;23.314;2023-04-28T09:52:35;94825.59;;;24.36;49.91
31337;BME280;22846;42.654;23.314;2023-04-28T09:55:03;94813.13;;;24.35;50.06
31337;BME280;22846;42.654;23.314;2023-04-28T09:57:30;94815.88;;;24.35;49.85
31337;BME280;22846;42.654;23.314;2023-04-28T10:00:00;94815.88;;;24.35;49.75
31337;BME280;22846;42.654;23.314;2023-04-28T10:02:26;94803.75;;;24.36;49.74
31337;BME280;22846;42.654;23.314;2023-04-28T10:04:52;94808.44;;;24.35;50.06
31337;BME280;22846;42.654;23.314;2023-04-28T10:07:19;94802.97;;;24.35;49.96
31337;BME280;22846;42.654;23.314;2023-04-28T10:09:46;94802.97;;;24.35;49.90
31337;BME280;22846;42.654;23.314;2023-04-28T10:12:15;94780.31;;;24.22;49.38
31337;BME280;22846;42.654;23.314;2023-04-28T10:14:42;94798.69;;;24.34;49.78
31337;BME280;22846;42.654;23.314;2023-04-28T10:17:09;94790.50;;;24.34;49.34
31337;BME280;22846;42.654;23.314;2023-04-28T10:19:35;94799.47;;;24.35;49.65
31337;BME280;22846;42.654;23.314;2023-04-28T10:27:41;94795.22;;;24.34;49.49
31337;BME280;22846;42.654;23.314;2023-04-28T10:32:43;94783.50;;;24.33;49.48
31337;BME280;22846;42.654;23.314;2023-04-28T10:38:16;94783.50;;;24.33;49.10
31337;BME280;22846;42.654;23.314;2023-04-28T10:40:51;94775.75;;;24.32;49.19
31337;BME280;22846;42.654;23.314;2023-04-28T10:56:28;94758.63;;;24.31;48.95
31337;BME280;22846;42.654;23.314;2023-04-28T10:58:55;94754.69;;;24.32;48.88
31337;BME280;22846;42.654;23.314;2023-04-28T11:03:49;94751.97;;;24.32;48.66
31337;BME280;22846;42.654;23.314;2023-04-28T11:06:31;94747.69;;;24.31;48.56
31337;BME280;22846;42.654;23.314;2023-04-28T11:17:01;94741.44;;;24.31;48.47
31337;BME280;22846;42.654;23.314;2023-04-28T11:21:55;94740.59;;;24.34;48.40
31337;BME280;22846;42.654;23.314;2023-04-28T11:24:22;94734.34;;;24.33;49.05
31337;BME280;22846;42.654;23.314;2023-04-28T11:26:50;94739.50;;;24.31;48.76
31337;BME280;22846;42.654;23.314;2023-04-28T11:29:16;94731.31;;;24.31;48.32
31337;BME280;22846;42.654;23.314;2023-04-28T11:31:48;94725.06;;;24.31;47.91
31337;BME280;22846;42.654;23.314;2023-04-28T11:34:18;94716.88;;;24.31;48.40
31337;BME280;22846;42.654;23.314;2023-04-28T11:36:44;94713.72;;;24.32;48.50
31337;BME280;22846;42.654;23.314;2023-04-28T11:39:11;94695.34;;;24.20;48.33
31337;BME280;22846;42.654;23.314;2023-04-28T11:41:39;94721.91;;;24.32;48.45
31337;BME280;22846;42.654;23.314;2023-04-28T11:44:12;94712.19;;;24.31;48.15
31337;BME280;22846;42.654;23.314;2023-04-28T11:49:14;94713.72;;;24.32;48.12
31337;BME280;22846;42.654;23.314;2023-04-28T11:51:39;94709.00;;;24.33;48.15
31337;BME280;22846;42.654;23.314;2023-04-28T11:54:07;94706.28;;;24.33;48.17
31337;BME280;22846;42.654;23.314;2023-04-28T11:56:36;94712.50;;;24.33;47.78
31337;BME280;22846;42.654;23.314;2023-04-28T11:59:06;94709.00;;;24.33;47.63
31337;BME280;22846;42.654;23.314;2023-04-28T12:01:34;94705.53;;;24.32;47.59
31337;BME280;22846;42.654;23.314;2023-04-28T12:04:08;94707.03;;;24.33;47.94
31337;BME280;22846;42.654;23.314;2023-04-28T12:06:33;94707.03;;;24.33;48.11
31337;BME280;22846;42.654;23.314;2023-04-28T12:08:59;94705.84;;;24.34;48.08
31337;BME280;22846;42.654;23.314;2023-04-28T12:11:28;94698.84;;;24.33;47.92
31337;BME280;22846;42.654;23.314;2023-04-28T12:14:02;94694.59;;;24.32;48.12
31337;BME280;22846;42.654;23.314;2023-04-28T12:16:37;94691.31;;;24.37;48.57
31337;BME280;22846;42.654;23.314;2023-04-28T12:19:04;94686.72;;;24.34;48.21
31337;BME280;22846;42.654;23.314;2023-04-28T12:21:34;94678.97;;;24.33;48.56
31337;BME280;22846;42.654;23.314;2023-04-28T12:23:59;94687.16;;;24.33;48.92
31337;BME280;22846;42.654;23.314;2023-04-28T12:26:25;94680.94;;;24.32;48.49
31337;BME280;22846;42.654;23.314;2023-04-28T12:28:51;94680.94;;;24.32;48.23
31337;BME280;22846;42.654;23.314;2023-04-28T12:31:16;94668.78;;;24.33;48.71
31337;BME280;22846;42.654;23.314;2023-04-28T12:33:42;94675.03;;;24.34;48.49
31337;BME280;22846;42.654;23.314;2023-04-28T12:36:09;94666.50;;;24.32;48.58
31337;BME280;22846;42.654;23.314;2023-04-28T12:38:34;94681.25;;;24.34;48.60
31337;BME280;22846;42.654;23.314;2023-04-28T12:40:59;94670.31;;;24.34;48.77
31337;BME280;22846;42.654;23.314;2023-04-28T12:43:25;94667.59;;;24.34;48.77
31337;BME280;22846;42.654;23.314;2023-04-28T12:45:53;94664.44;;;24.36;48.93
31337;BME280;22846;42.654;23.314;2023-04-28T12:48:19;94665.19;;;24.36;48.67
31337;BME280;22846;42.654;23.314;2023-04-28T12:50:45;94660.94;;;24.35;48.45
31337;BME280;22846;42.654;23.314;2023-04-28T12:53:11;94657.00;;;24.36;48.84
31337;BME280;22846;42.654;23.314;2023-04-28T12:55:36;94662.81;;;24.38;48.65
31337;BME280;22846;42.654;23.314;2023-04-28T12:58:04;94660.06;;;24.38;48.75
31337;BME280;22846;42.654;23.314;2023-04-28T13:00:29;94649.91;;;24.39;48.57
31337;BME280;22846;42.654;23.314;2023-04-28T13:02:55;94653.41;;;24.39;48.60
31337;BME280;22846;42.654;23.314;2023-04-28T13:05:20;94640.50;;;24.40;48.44
31337;BME280;22846;42.654;23.314;2023-04-28T13:07:46;94636.56;;;24.41;48.01
31337;BME280;22846;42.654;23.314;2023-04-28T13:10:13;94638.56;;;24.40;48.34
31337;BME280;22846;42.654;23.314;2023-04-28T13:12:39;94642.78;;;24.41;48.03
31337;BME280;22846;42.654;23.314;2023-04-28T13:15:05;94637.69;;;24.43;48.18
31337;BME280;22846;42.654;23.314;2023-04-28T13:17:31;94634.97;;;24.43;48.18
31337;BME280;22846;42.654;23.314;2023-04-28T13:19:57;94624.81;;;24.44;47.92
31337;BME280;22846;42.654;23.314;2023-04-28T13:22:25;94631.81;;;24.45;47.83
31337;BME280;22846;42.654;23.314;2023-04-28T13:24:50;94625.56;;;24.44;47.88
31337;BME280;22846;42.654;23.314;2023-04-28T13:27:16;94634.09;;;24.46;48.00